Time;durP1;ratioP1;P1;durP2;ratioP2;P2;SDS_P1;SDS_P2;PMS_P1;PMS_P2;Temp;Humidity;BMP_temperature;BMP_pressure;BME280_temperature;BME280_humidity;BME280_pressure;Samples;Min_cycle;Max_cycle;Signal;HPM_P1;HPM_P2
2023/01/10 00:00:08;;;;;;;0.97;0.97;;;17.80;70.00;;;;;;5104436;27;43465;-72
2023/01/10 00:02:36;;;;;;;0.90;0.90;;;17.70;69.40;;;;;;5098866;27;43872;-70
2023/01/10 00:05:05;;;;;;;0.97;0.97;;;17.70;69.50;;;;;;5101201;27;43442;-71
2023/01/10 00:07:33;;;;;;;0.87;0.87;;;17.70;69.70;;;;;;5094592;27;43465;-73
2023/01/10 00:10:00;;;;;;;0.90;0.90;;;17.60;69.80;;;;;;5104138;27;43504;-72
2023/01/10 00:15:15;;;;;;;0.70;0.70;;;17.60;69.80;;;;;;5104076;27;43864;-70
2023/01/10 00:17:43;;;;;;;0.80;0.80;;;17.60;69.90;;;;;;5096780;27;43394;-72
2023/01/10 00:20:12;;;;;;;1.00;1.00;;;17.60;70.00;;;;;;5074934;27;43578;-73
2023/01/10 00:22:40;;;;;;;0.90;0.90;;;17.60;70.00;;;;;;5096035;27;43815;-72
2023/01/10 00:25:08;;;;;;;0.80;0.80;;;17.60;70.20;;;;;;5098511;27;43521;-71
2023/01/10 00:27:36;;;;;;;0.70;0.70;;;17.60;70.00;;;;;;5101714;27;44565;-71
2023/01/10 00:30:12;;;;;;;0.73;0.73;;;17.70;69.70;;;;;;5097168;27;43784;-71
2023/01/10 00:32:42;;;;;;;0.80;0.80;;;17.70;69.40;;;;;;5103102;27;43920;-72
2023/01/10 00:35:10;;;;;;;0.90;0.90;;;17.70;69.50;;;;;;5093061;27;43596;-72
2023/01/10 00:37:39;;;;;;;0.90;0.90;;;17.70;69.60;;;;;;5104744;27;43399;-71
2023/01/10 00:40:08;;;;;;;0.80;0.80;;;17.70;69.80;;;;;;5098550;27;43344;-71
2023/01/10 00:45:25;;;;;;;0.80;0.80;;;17.60;69.60;;;;;;5072131;27;43403;-73
2023/01/10 00:47:54;;;;;;;0.87;0.87;;;17.60;69.70;;;;;;5100940;27;43442;-71
2023/01/10 00:50:22;;;;;;;0.80;0.80;;;17.60;69.90;;;;;;5098110;27;43606;-71
2023/01/10 00:52:50;;;;;;;0.90;0.90;;;17.60;70.00;;;;;;5104023;27;43852;-71
2023/01/10 00:55:18;;;;;;;0.80;0.80;;;17.50;70.00;;;;;;5095276;27;43994;-72
2023/01/10 00:57:46;;;;;;;0.70;0.70;;;17.60;70.00;;;;;;5079854;27;43489;-71
2023/01/10 01:00:14;;;;;;;0.90;0.90;;;17.70;69.70;;;;;;5102685;27;43975;-71
2023/01/10 01:02:42;;;;;;;0.90;0.90;;;17.70;69.50;;;;;;5081289;27;45824;-71
2023/01/10 01:05:11;;;;;;;0.90;0.90;;;17.70;69.60;;;;;;5099822;27;43413;-70
2023/01/10 01:07:39;;;;;;;0.80;0.80;;;17.70;69.70;;;;;;5102368;27;43421;-72
2023/01/10 01:10:26;;;;;;;0.93;0.93;;;17.60;69.80;;;;;;5104466;27;43389;-72
2023/01/10 01:12:55;;;;;;;0.70;0.70;;;17.60;69.70;;;;;;5102419;27;43991;-72
2023/01/10 01:15:23;;;;;;;0.70;0.70;;;17.60;69.70;;;;;;5107414;27;43512;-72
2023/01/10 01:17:51;;;;;;;0.80;0.80;;;17.60;69.90;;;;;;5100525;27;43462;-70
2023/01/10 01:20:20;;;;;;;0.77;0.77;;;17.60;69.90;;;;;;5101184;27;43453;-70
2023/01/10 01:22:48;;;;;;;0.70;0.70;;;17.60;70.00;;;;;;5100495;27;43929;-70
2023/01/10 01:25:16;;;;;;;1.07;1.07;;;17.50;70.10;;;;;;5100471;27;43414;-71
2023/01/10 01:27:44;;;;;;;0.83;0.83;;;17.60;70.10;;;;;;5104897;27;43462;-71
2023/01/10 01:30:13;;;;;;;0.77;0.77;;;17.70;69.80;;;;;;5106660;27;43548;-70
2023/01/10 01:32:40;;;;;;;0.70;0.70;;;17.80;69.40;;;;;;5104553;27;43843;-71
2023/01/10 01:35:10;;;;;;;0.80;0.80;;;17.80;69.20;;;;;;5102515;27;43348;-71
2023/01/10 01:37:39;;;;;;;0.90;0.90;;;17.70;69.30;;;;;;5081544;28;43677;-72
2023/01/10 01:40:09;;;;;;;0.77;0.77;;;17.70;69.50;;;;;;5081302;27;43877;-71
2023/01/10 01:42:37;;;;;;;0.90;0.90;;;17.70;69.50;;;;;;5095290;27;43600;-72
2023/01/10 01:45:38;;;;;;;0.83;0.83;;;17.70;70.10;;;;;;5097655;27;43976;-74
2023/01/10 01:48:23;;;;;;;0.83;0.83;;;17.70;69.70;;;;;;5090007;27;43371;-73
2023/01/10 01:50:54;;;;;;;0.70;0.70;;;17.60;69.70;;;;;;5070994;28;43607;-70
2023/01/10 01:53:27;;;;;;;0.80;0.80;;;17.60;69.90;;;;;;5078119;27;45566;-71
2023/01/10 01:55:55;;;;;;;0.83;0.83;;;17.60;70.00;;;;;;5100310;27;43384;-71
2023/01/10 01:58:27;;;;;;;0.60;0.60;;;17.60;69.80;;;;;;5103781;27;43466;-73
2023/01/10 02:00:54;;;;;;;1.00;1.00;;;17.60;69.90;;;;;;5101620;27;43479;-71
2023/01/10 02:03:23;;;;;;;0.80;0.80;;;17.50;69.90;;;;;;5093202;27;43743;-71
2023/01/10 02:05:51;;;;;;;0.83;0.83;;;17.50;70.00;;;;;;5108158;27;43506;-70
2023/01/10 02:08:19;;;;;;;0.80;0.80;;;17.50;70.10;;;;;;5106512;27;44015;-70
2023/01/10 02:10:51;;;;;;;0.77;0.77;;;17.50;70.20;;;;;;5103732;27;43474;-70
2023/01/10 02:13:20;;;;;;;0.80;0.80;;;17.50;70.00;;;;;;5099452;27;43607;-71
2023/01/10 02:15:48;;;;;;;0.97;0.97;;;17.70;69.70;;;;;;5101405;27;43454;-71
2023/01/10 02:18:16;;;;;;;0.90;0.90;;;17.70;69.30;;;;;;5101776;27;43457;-72
2023/01/10 02:20:53;;;;;;;0.70;0.70;;;17.70;69.30;;;;;;5097740;27;43469;-71
2023/01/10 02:23:42;;;;;;;0.90;0.90;;;17.70;70.20;;;;;;5098388;27;44051;-71
2023/01/10 02:26:23;;;;;;;0.90;0.90;;;17.70;70.40;;;;;;5096557;27;43530;-70
2023/01/10 02:29:17;;;;;;;0.80;0.80;;;17.60;69.40;;;;;;5096419;27;43442;-70
2023/01/10 02:32:07;;;;;;;0.90;0.90;;;17.60;69.60;;;;;;5097978;27;43410;-71
2023/01/10 02:34:38;;;;;;;0.80;0.80;;;17.60;69.70;;;;;;5100404;27;43793;-71
2023/01/10 02:37:08;;;;;;;0.77;0.77;;;17.60;69.80;;;;;;5097487;27;43414;-71
2023/01/10 02:39:39;;;;;;;0.93;0.93;;;17.50;69.90;;;;;;5099020;27;43580;-72
2023/01/10 02:42:08;;;;;;;0.80;0.80;;;17.50;69.90;;;;;;5094266;27;43396;-72
2023/01/10 02:44:38;;;;;;;0.90;0.90;;;17.50;69.90;;;;;;5099681;27;43919;-70
2023/01/10 02:47:08;;;;;;;0.80;0.80;;;17.50;70.00;;;;;;5103604;27;43459;-69
2023/01/10 02:49:42;;;;;;;1.00;1.00;;;17.50;70.00;;;;;;5079962;27;43406;-70
2023/01/10 02:52:10;;;;;;;0.80;0.80;;;17.50;70.00;;;;;;5083509;27;43514;-71
2023/01/10 02:54:38;;;;;;;0.90;0.90;;;17.50;70.20;;;;;;5099056;27;43724;-70
2023/01/10 02:57:16;;;;;;;0.90;0.90;;;17.50;70.20;;;;;;5099266;27;43804;-70
2023/01/10 03:00:08;;;;;;;0.80;0.80;;;17.60;69.90;;;;;;5102628;27;43993;-72
2023/01/10 03:02:44;;;;;;;0.87;0.87;;;17.70;69.40;;;;;;5102196;27;43467;-70
2023/01/10 03:05:18;;;;;;;0.70;0.70;;;17.70;69.20;;;;;;5102726;27;43654;-72
2023/01/10 03:07:49;;;;;;;0.90;0.90;;;17.70;69.40;;;;;;5079570;27;45802;-71
2023/01/10 03:10:18;;;;;;;1.07;1.07;;;17.70;69.60;;;;;;5099480;27;43481;-72
2023/01/10 03:12:49;;;;;;;0.80;0.80;;;17.70;69.50;;;;;;5081960;27;43485;-72
2023/01/10 03:15:18;;;;;;;1.00;1.00;;;17.70;69.50;;;;;;5096613;27;43879;-71
2023/01/10 03:17:49;;;;;;;0.90;0.90;;;17.60;69.60;;;;;;5083622;27;45047;-72
2023/01/10 03:20:17;;;;;;;0.80;0.80;;;17.60;69.70;;;;;;5099752;27;43874;-72
2023/01/10 03:22:45;;;;;;;0.73;0.73;;;17.60;69.90;;;;;;5099506;27;43455;-73
2023/01/10 03:25:14;;;;;;;3.60;1.00;;;17.50;70.00;;;;;;5079787;27;46144;-71
2023/01/10 03:27:47;;;;;;;0.90;0.90;;;17.50;69.90;;;;;;5087881;27;44377;-72
2023/01/10 03:30:18;;;;;;;0.97;0.97;;;17.50;69.90;;;;;;5100017;27;43382;-72
2023/01/10 03:32:48;;;;;;;0.90;0.90;;;17.50;70.00;;;;;;5069175;27;43491;-71
2023/01/10 03:35:16;;;;;;;0.80;0.80;;;17.50;70.00;;;;;;5098754;27;43844;-70
2023/01/10 03:37:46;;;;;;;1.10;1.10;;;17.50;70.10;;;;;;5088973;27;43551;-72
2023/01/10 03:40:16;;;;;;;0.93;0.93;;;17.50;70.20;;;;;;5098911;27;43872;-71
2023/01/10 03:45:34;;;;;;;0.90;0.90;;;17.60;69.90;;;;;;5097807;27;43602;-72
2023/01/10 03:48:04;;;;;;;1.00;1.00;;;17.70;69.40;;;;;;5081398;27;44716;-72
2023/01/10 03:50:32;;;;;;;0.80;0.80;;;17.70;69.20;;;;;;5106611;27;44003;-70
2023/01/10 03:53:00;;;;;;;0.80;0.80;;;17.70;69.30;;;;;;5083770;27;43964;-71
2023/01/10 03:55:28;;;;;;;0.80;0.80;;;17.70;69.50;;;;;;5095816;27;43883;-70
2023/01/10 03:57:56;;;;;;;0.80;0.80;;;17.60;69.40;;;;;;5098806;27;43989;-72
2023/01/10 04:00:24;;;;;;;1.00;1.00;;;17.70;69.50;;;;;;5101213;27;43315;-71
2023/01/10 04:02:52;;;;;;;0.90;0.90;;;17.60;69.60;;;;;;5099607;27;43550;-71
2023/01/10 04:05:22;;;;;;;0.97;0.97;;;17.60;69.70;;;;;;5083821;27;46376;-71
2023/01/10 04:07:50;;;;;;;1.10;1.10;;;17.60;69.80;;;;;;5101778;27;43466;-72
2023/01/10 04:10:18;;;;;;;0.80;0.80;;;17.50;69.90;;;;;;5102525;27;43416;-71
2023/01/10 04:12:45;;;;;;;1.20;1.20;;;17.50;70.00;;;;;;5103193;27;43993;-72
2023/01/10 04:15:13;;;;;;;0.90;0.90;;;17.50;69.80;;;;;;5104022;27;43932;-72
2023/01/10 04:17:41;;;;;;;0.90;0.90;;;17.50;69.90;;;;;;5101347;27;43419;-70
2023/01/10 04:20:11;;;;;;;0.90;0.90;;;17.50;70.00;;;;;;5095507;27;43452;-72
2023/01/10 04:22:40;;;;;;;1.00;1.00;;;17.50;70.10;;;;;;5106902;27;43380;-71
2023/01/10 04:25:08;;;;;;;0.70;0.70;;;17.40;70.10;;;;;;5100630;27;43681;-72
2023/01/10 04:27:36;;;;;;;0.90;0.90;;;17.50;70.10;;;;;;5082610;27;45761;-72
2023/01/10 04:30:05;;;;;;;1.00;1.00;;;17.50;70.10;;;;;;5097787;27;43466;-71
2023/01/10 04:32:34;;;;;;;0.80;0.80;;;17.50;70.10;;;;;;5103556;27;44022;-71
2023/01/10 04:35:02;;;;;;;0.80;0.80;;;17.50;70.10;;;;;;5094832;27;43654;-70
2023/01/10 04:37:30;;;;;;;0.87;0.87;;;17.40;70.00;;;;;;5103935;27;44006;-71
2023/01/10 04:39:59;;;;;;;0.90;0.90;;;17.40;70.20;;;;;;5099767;27;43465;-72
2023/01/10 04:42:27;;;;;;;0.90;0.90;;;17.50;70.20;;;;;;5103961;27;43453;-73
2023/01/10 04:44:55;;;;;;;1.00;1.00;;;17.60;69.80;;;;;;5102184;27;43805;-71
2023/01/10 04:47:23;;;;;;;0.73;0.73;;;17.70;69.30;;;;;;5099179;27;43402;-70
2023/01/10 04:49:51;;;;;;;0.90;0.90;;;17.80;69.00;;;;;;5099113;27;43443;-70
2023/01/10 04:52:19;;;;;;;1.00;1.00;;;17.80;69.10;;;;;;5103436;27;43383;-71
2023/01/10 04:54:47;;;;;;;0.93;0.93;;;17.70;69.10;;;;;;5099584;27;43748;-70
2023/01/10 04:57:16;;;;;;;1.00;1.00;;;17.70;69.30;;;;;;5101919;27;43521;-71
2023/01/10 04:59:44;;;;;;;0.90;0.90;;;17.70;69.20;;;;;;5107174;27;43967;-70
2023/01/10 05:02:12;;;;;;;1.00;1.00;;;17.70;69.50;;;;;;5103607;27;43410;-71
2023/01/10 05:04:40;;;;;;;0.87;0.87;;;17.60;69.50;;;;;;5101440;27;43704;-70
2023/01/10 05:07:08;;;;;;;0.93;0.93;;;17.60;69.70;;;;;;5109209;27;43903;-71
2023/01/10 05:09:36;;;;;;;0.70;0.70;;;17.50;69.80;;;;;;5100705;27;43801;-70
2023/01/10 05:12:04;;;;;;;1.20;1.20;;;17.50;69.90;;;;;;5098576;27;43701;-72
2023/01/10 05:14:33;;;;;;;0.90;0.90;;;17.50;69.80;;;;;;5104564;27;43974;-71
2023/01/10 05:17:01;;;;;;;1.00;1.00;;;17.50;69.90;;;;;;5098212;27;43414;-73
2023/01/10 05:19:29;;;;;;;0.80;0.80;;;17.50;70.00;;;;;;5101775;27;43939;-72
2023/01/10 05:21:57;;;;;;;1.17;1.07;;;17.50;70.00;;;;;;5086005;27;43503;-72
2023/01/10 05:24:25;;;;;;;0.73;0.73;;;17.40;70.00;;;;;;5102162;27;43923;-71
2023/01/10 05:26:53;;;;;;;1.10;1.10;;;17.40;70.10;;;;;;5103473;27;43453;-71
2023/01/10 05:29:21;;;;;;;1.20;1.20;;;17.50;70.00;;;;;;5098893;27;43417;-71
2023/01/10 05:31:52;;;;;;;1.10;1.10;;;17.60;69.60;;;;;;5076917;28;43409;-71
2023/01/10 05:34:20;;;;;;;0.80;0.80;;;17.60;69.30;;;;;;5105458;27;43592;-70
2023/01/10 05:36:48;;;;;;;0.80;0.80;;;17.60;69.40;;;;;;5104057;27;43534;-72
2023/01/10 05:39:16;;;;;;;0.90;0.90;;;17.60;69.50;;;;;;5093640;27;43457;-71
2023/01/10 05:41:44;;;;;;;0.93;0.93;;;17.60;69.70;;;;;;5106171;27;44033;-70
2023/01/10 05:44:12;;;;;;;0.80;0.80;;;17.50;69.50;;;;;;5081024;27;45846;-71
2023/01/10 05:46:41;;;;;;;0.87;0.87;;;17.50;69.60;;;;;;5106148;27;44018;-71
2023/01/10 05:49:11;;;;;;;1.00;1.00;;;17.50;69.70;;;;;;5084842;27;43419;-71
2023/01/10 05:51:39;;;;;;;1.00;1.00;;;17.50;69.80;;;;;;5100406;27;43936;-71
2023/01/10 05:54:07;;;;;;;1.00;1.00;;;17.50;70.00;;;;;;5106385;27;43982;-71
2023/01/10 05:56:35;;;;;;;1.03;1.00;;;17.40;70.00;;;;;;5104507;27;43398;-72
2023/01/10 05:59:03;;;;;;;1.30;1.20;;;17.40;69.80;;;;;;5086809;27;43359;-72
2023/01/10 06:01:38;;;;;;;1.20;1.20;;;17.40;69.90;;;;;;5086835;27;44028;-71
2023/01/10 06:04:06;;;;;;;0.87;0.87;;;17.40;69.90;;;;;;5107763;27;43809;-70
2023/01/10 06:06:35;;;;;;;1.00;1.00;;;17.40;69.90;;;;;;5084347;27;45137;-70
2023/01/10 06:09:03;;;;;;;1.10;1.10;;;17.40;70.00;;;;;;5102161;27;43920;-71
2023/01/10 06:11:35;;;;;;;1.00;1.00;;;17.40;70.10;;;;;;5084218;27;43600;-72
2023/01/10 06:14:03;;;;;;;1.20;1.10;;;17.50;70.10;;;;;;5099994;27;43603;-71
2023/01/10 06:16:31;;;;;;;1.10;1.10;;;17.60;69.70;;;;;;5101184;27;43401;-70
2023/01/10 06:18:59;;;;;;;0.90;0.90;;;17.70;69.30;;;;;;5103670;27;43431;-71
2023/01/10 06:21:27;;;;;;;1.00;1.00;;;17.70;69.00;;;;;;5101219;27;43501;-72
2023/01/10 06:23:56;;;;;;;0.90;0.90;;;17.70;69.00;;;;;;5100836;27;43911;-70
2023/01/10 06:26:24;;;;;;;1.30;1.30;;;17.70;69.10;;;;;;5083485;27;44702;-71
2023/01/10 06:28:52;;;;;;;0.90;0.90;;;17.70;69.20;;;;;;5101812;27;43480;-71
2023/01/10 06:31:20;;;;;;;1.10;1.10;;;17.70;69.10;;;;;;5107199;27;43402;-71
2023/01/10 06:33:50;;;;;;;1.00;1.00;;;17.70;69.20;;;;;;5102218;27;43611;-72
2023/01/10 06:36:18;;;;;;;1.10;1.10;;;17.70;69.30;;;;;;5100043;27;43400;-71
2023/01/10 06:38:46;;;;;;;0.90;0.90;;;17.60;69.30;;;;;;5086484;27;43360;-71
2023/01/10 06:41:15;;;;;;;0.90;0.90;;;17.60;69.50;;;;;;5093271;27;43494;-70
2023/01/10 06:43:45;;;;;;;1.43;0.93;;;17.60;69.60;;;;;;5107079;27;43732;-71
2023/01/10 06:46:14;;;;;;;0.90;0.90;;;17.60;69.50;;;;;;5079651;27;45766;-71
2023/01/10 06:48:44;;;;;;;0.90;0.90;;;17.60;69.50;;;;;;5100410;27;43877;-72
2023/01/10 06:51:12;;;;;;;1.00;1.00;;;17.60;69.60;;;;;;5108208;27;43360;-72
2023/01/10 06:53:40;;;;;;;0.90;0.90;;;17.60;69.60;;;;;;5101344;27;43764;-71
2023/01/10 06:56:08;;;;;;;1.00;1.00;;;17.50;69.60;;;;;;5099823;27;43445;-73
2023/01/10 06:58:38;;;;;;;1.00;1.00;;;17.50;69.70;;;;;;5097418;27;43594;-70
2023/01/10 07:01:06;;;;;;;1.00;1.00;;;17.60;69.60;;;;;;5102884;27;43724;-72
2023/01/10 07:03:34;;;;;;;1.13;1.10;;;17.70;69.20;;;;;;5101563;27;43904;-73
2023/01/10 07:06:04;;;;;;;1.00;1.00;;;17.80;69.00;;;;;;5098595;27;43387;-71
2023/01/10 07:08:32;;;;;;;0.97;0.97;;;17.80;68.90;;;;;;5096766;27;43884;-71
2023/01/10 07:11:00;;;;;;;1.00;1.00;;;17.70;69.00;;;;;;5100477;27;43466;-71
2023/01/10 07:13:28;;;;;;;1.10;1.10;;;17.70;69.20;;;;;;5104073;27;43771;-72
2023/01/10 07:16:03;;;;;;;1.00;1.00;;;17.70;69.20;;;;;;5097281;27;43582;-71
2023/01/10 07:18:31;;;;;;;0.90;0.90;;;17.70;69.10;;;;;;5101596;27;43842;-71
2023/01/10 07:20:59;;;;;;;0.97;0.97;;;17.70;69.30;;;;;;5096488;27;43439;-71
2023/01/10 07:23:27;;;;;;;1.03;1.03;;;17.60;69.20;;;;;;5097924;27;43904;-71
2023/01/10 07:25:54;;;;;;;1.00;1.00;;;17.60;69.40;;;;;;5101393;27;43951;-72
2023/01/10 07:28:22;;;;;;;1.10;1.10;;;17.60;69.60;;;;;;5081257;27;43504;-71
2023/01/10 07:30:50;;;;;;;1.00;1.00;;;17.60;69.40;;;;;;5103157;27;43397;-71
2023/01/10 07:33:20;;;;;;;0.97;0.97;;;17.60;69.30;;;;;;5103833;27;43863;-72
2023/01/10 07:35:48;;;;;;;1.10;1.07;;;17.60;69.50;;;;;;5082152;27;44383;-70
2023/01/10 07:38:15;;;;;;;1.10;1.10;;;17.60;69.60;;;;;;5098630;27;43493;-71
2023/01/10 07:40:44;;;;;;;1.00;1.00;;;17.50;69.60;;;;;;5098357;27;43474;-72
2023/01/10 07:43:12;;;;;;;1.30;1.20;;;17.50;69.70;;;;;;5104295;27;43752;-71
2023/01/10 07:45:40;;;;;;;2.17;1.60;;;17.60;69.70;;;;;;5106051;27;44098;-72
2023/01/10 07:48:08;;;;;;;1.80;1.70;;;17.70;69.40;;;;;;5101395;27;43394;-72
2023/01/10 07:50:38;;;;;;;2.13;1.87;;;17.70;68.90;;;;;;5104554;27;44014;-71
2023/01/10 07:53:06;;;;;;;2.10;1.90;;;17.70;68.80;;;;;;5105677;27;43829;-72
2023/01/10 07:55:37;;;;;;;3.53;2.40;;;17.70;69.00;;;;;;5104848;27;44001;-71
2023/01/10 07:58:06;;;;;;;4.47;2.53;;;17.70;69.10;;;;;;5083613;28;43432;-72
2023/01/10 08:00:34;;;;;;;3.60;2.63;;;17.70;69.20;;;;;;5100984;27;43386;-74
2023/01/10 08:03:02;;;;;;;3.83;2.50;;;17.70;69.10;;;;;;5100444;27;43671;-72
2023/01/10 08:05:31;;;;;;;6.40;3.10;;;17.70;69.30;;;;;;5084461;27;44744;-71
2023/01/10 08:08:05;;;;;;;5.73;3.13;;;17.70;69.30;;;;;;5101130;27;43393;-72
2023/01/10 08:10:33;;;;;;;5.90;3.07;;;17.60;69.30;;;;;;5100108;27;43371;-71
2023/01/10 08:13:02;;;;;;;6.23;3.10;;;17.60;69.40;;;;;;5105768;27;43942;-70
2023/01/10 08:15:45;;;;;;;6.80;3.60;;;17.60;69.50;;;;;;5097668;27;43416;-71
2023/01/10 08:18:13;;;;;;;6.10;3.53;;;17.60;69.40;;;;;;5101239;27;44031;-72
2023/01/10 08:20:41;;;;;;;6.53;3.60;;;17.60;69.40;;;;;;5096358;27;43356;-71
2023/01/10 08:23:11;;;;;;;5.57;3.60;;;17.60;69.50;;;;;;5079837;27;45929;-72
2023/01/10 08:25:39;;;;;;;7.73;4.03;;;17.60;69.50;;;;;;5101282;27;43456;-71
2023/01/10 08:28:06;;;;;;;6.13;3.50;;;17.50;69.50;;;;;;5095316;27;43498;-70
2023/01/10 08:30:34;;;;;;;6.90;3.87;;;17.50;69.70;;;;;;5100393;27;43455;-72
2023/01/10 08:33:02;;;;;;;6.60;3.97;;;17.60;69.60;;;;;;5100380;27;43943;-72
2023/01/10 08:35:30;;;;;;;8.27;4.40;;;17.70;69.20;;;;;;5096276;27;43477;-71
2023/01/10 08:37:59;;;;;;;5.87;4.03;;;17.80;69.50;;;;;;5097131;27;43442;-72
2023/01/10 08:40:28;;;;;;;8.10;4.23;;;17.80;68.70;;;;;;5105003;27;43473;-72
2023/01/10 08:42:58;;;;;;;6.97;3.57;;;17.80;68.90;;;;;;5099862;27;43705;-71
2023/01/10 08:45:26;;;;;;;7.70;4.10;;;17.70;69.10;;;;;;5103750;27;43447;-70
2023/01/10 08:47:54;;;;;;;4.63;3.53;;;17.70;68.90;;;;;;5091190;27;43561;-70
2023/01/10 08:50:22;;;;;;;5.60;3.60;;;17.70;68.90;;;;;;5103599;27;43445;-71
2023/01/10 08:52:50;;;;;;;6.70;3.93;;;17.70;69.00;;;;;;5102359;27;43870;-71
2023/01/10 08:55:18;;;;;;;4.63;3.57;;;17.60;69.10;;;;;;5093602;27;43458;-70
2023/01/10 08:57:48;;;;;;;5.50;3.53;;;17.60;69.30;;;;;;5097694;27;43487;-72
2023/01/10 09:00:16;;;;;;;5.27;3.73;;;17.60;69.60;;;;;;5104366;27;43417;-70
2023/01/10 09:02:44;;;;;;;7.13;3.90;;;17.60;69.30;;;;;;5097602;27;43960;-71
2023/01/10 09:05:12;;;;;;;5.03;4.13;;;17.60;69.40;;;;;;5102260;27;43500;-70
2023/01/10 09:07:53;;;;;;;5.33;3.90;;;17.60;69.40;;;;;;5084129;27;43427;-71
2023/01/10 09:10:21;;;;;;;4.90;3.30;;;17.50;69.40;;;;;;5089311;27;43500;-72
2023/01/10 09:12:58;;;;;;;4.07;3.57;;;17.50;69.50;;;;;;5100495;27;43841;-71
2023/01/10 09:15:27;;;;;;;6.77;3.73;;;17.50;69.80;;;;;;5097679;27;43462;-70
2023/01/10 09:17:55;;;;;;;5.10;3.67;;;17.50;69.80;;;;;;5104495;27;43799;-71
2023/01/10 09:20:24;;;;;;;4.20;3.13;;;17.70;69.50;;;;;;5096239;27;43360;-72
2023/01/10 09:22:52;;;;;;;5.07;3.47;;;17.70;69.00;;;;;;5097210;27;43929;-72
2023/01/10 09:25:20;;;;;;;4.53;3.67;;;17.70;68.80;;;;;;5102484;27;43344;-71
2023/01/10 09:27:49;;;;;;;4.80;3.30;;;17.70;69.10;;;;;;5097869;27;43377;-72
2023/01/10 09:30:18;;;;;;;5.50;3.73;;;17.70;69.00;;;;;;5096962;27;43999;-71
2023/01/10 09:32:49;;;;;;;4.87;3.47;;;17.70;69.20;;;;;;5098917;27;43615;-71
2023/01/10 09:35:17;;;;;;;4.53;3.33;;;17.70;69.10;;;;;;5094601;27;43494;-71
2023/01/10 09:37:45;;;;;;;5.03;3.27;;;17.60;69.10;;;;;;5089815;27;43441;-71
2023/01/10 09:40:14;;;;;;;4.13;3.43;;;17.60;69.20;;;;;;5094257;27;43449;-72
2023/01/10 09:42:54;;;;;;;5.20;3.43;;;17.60;69.30;;;;;;5089107;27;43880;-71
2023/01/10 09:45:26;;;;;;;4.70;3.60;;;17.50;69.40;;;;;;5099778;27;43536;-72
2023/01/10 09:47:57;;;;;;;4.73;3.50;;;17.50;69.50;;;;;;5102482;27;43462;-72
2023/01/10 09:50:31;;;;;;;3.50;3.10;;;17.50;69.30;;;;;;5102730;27;43421;-72
2023/01/10 09:53:04;;;;;;;3.97;3.47;;;17.50;69.40;;;;;;5093959;27;43913;-73
2023/01/10 09:55:33;;;;;;;3.37;3.07;;;17.50;69.60;;;;;;5080617;27;44412;-70
2023/01/10 09:58:05;;;;;;;3.30;3.00;;;17.50;69.50;;;;;;5102440;27;43876;-70
2023/01/10 10:00:37;;;;;;;6.80;3.67;;;17.50;69.80;;;;;;5104183;27;43439;-70
2023/01/10 10:03:14;;;;;;;3.40;3.10;;;17.50;69.80;;;;;;5099256;27;43601;-70
2023/01/10 10:05:43;;;;;;;3.93;3.33;;;17.60;69.40;;;;;;5098850;27;43323;-72
2023/01/10 10:08:15;;;;;;;4.10;3.20;;;17.70;69.00;;;;;;5080986;27;43411;-70
2023/01/10 10:10:47;;;;;;;4.00;2.90;;;17.80;68.90;;;;;;5101748;27;43354;-71
2023/01/10 10:13:20;;;;;;;4.33;3.00;;;17.70;68.80;;;;;;5102139;27;43925;-72
2023/01/10 10:15:57;;;;;;;3.50;3.20;;;17.70;69.10;;;;;;5083154;27;44563;-70
2023/01/10 10:18:31;;;;;;;3.40;3.10;;;17.70;69.00;;;;;;5103655;27;43933;-71
2023/01/10 10:21:01;;;;;;;4.10;3.17;;;17.70;69.00;;;;;;5103158;27;43386;-71
2023/01/10 10:23:56;;;;;;;3.43;3.10;;;17.70;69.20;;;;;;5100935;27;43927;-71
2023/01/10 10:26:28;;;;;;;3.03;2.77;;;17.60;69.20;;;;;;5092346;27;43426;-70
2023/01/10 10:29:19;;;;;;;3.10;2.80;;;17.60;69.40;;;;;;5105795;27;43465;-71
2023/01/10 10:32:08;;;;;;;4.03;3.30;;;17.50;69.50;;;;;;5100437;27;43904;-72
2023/01/10 10:34:38;;;;;;;3.50;3.00;;;17.50;69.30;;;;;;5101195;27;44028;-72
2023/01/10 10:37:10;;;;;;;3.27;2.97;;;17.50;69.50;;;;;;5103056;27;43334;-70
2023/01/10 10:39:41;;;;;;;3.40;3.13;;;17.50;69.50;;;;;;5101540;27;43480;-71
2023/01/10 10:42:12;;;;;;;3.53;3.23;;;17.50;69.50;;;;;;5101879;27;43972;-72
2023/01/10 10:44:44;;;;;;;3.20;2.77;;;17.50;69.60;;;;;;5096848;27;45038;-71
2023/01/10 10:47:16;;;;;;;3.17;2.90;;;17.50;69.60;;;;;;5091871;27;43580;-72
2023/01/10 10:49:46;;;;;;;3.33;2.97;;;17.50;69.60;;;;;;5091380;27;43949;-71
2023/01/10 10:52:19;;;;;;;3.07;2.80;;;17.50;69.60;;;;;;5091417;27;43478;-72
2023/01/10 10:54:47;;;;;;;3.40;3.10;;;17.50;69.60;;;;;;5100087;27;44046;-71
2023/01/10 10:57:14;;;;;;;2.97;2.63;;;17.50;69.60;;;;;;5099719;27;43382;-70
2023/01/10 10:59:46;;;;;;;2.97;2.77;;;17.40;69.60;;;;;;5102190;27;43540;-72
2023/01/10 11:02:23;;;;;;;4.00;3.20;;;17.50;70.00;;;;;;5104557;27;43916;-71
2023/01/10 11:04:52;;;;;;;3.17;2.87;;;17.50;69.60;;;;;;5104441;27;43830;-71
2023/01/10 11:07:20;;;;;;;3.57;3.27;;;17.70;69.20;;;;;;5089687;27;43472;-72
2023/01/10 11:09:50;;;;;;;3.40;3.03;;;17.80;68.80;;;;;;5076208;28;43473;-71
2023/01/10 11:12:18;;;;;;;3.50;2.90;;;17.80;68.70;;;;;;5093157;27;43554;-71
2023/01/10 11:14:50;;;;;;;3.13;2.70;;;17.70;68.80;;;;;;5077037;27;46172;-70
2023/01/10 11:17:20;;;;;;;2.43;2.33;;;17.70;68.90;;;;;;5091171;27;43333;-72
2023/01/10 11:19:58;;;;;;;2.90;2.70;;;17.70;68.80;;;;;;5099801;27;43376;-70
2023/01/10 11:22:27;;;;;;;2.77;2.53;;;17.70;68.90;;;;;;5098286;27;43977;-70
2023/01/10 11:24:56;;;;;;;2.93;2.53;;;17.60;69.10;;;;;;5103886;27;43907;-71
2023/01/10 11:27:25;;;;;;;3.03;2.80;;;17.60;69.10;;;;;;5090856;27;43968;-70
2023/01/10 11:29:56;;;;;;;3.13;2.80;;;17.50;69.30;;;;;;5107468;27;43473;-71
2023/01/10 11:32:31;;;;;;;2.87;2.60;;;17.50;69.50;;;;;;5103067;27;43884;-70
2023/01/10 11:35:00;;;;;;;4.50;3.50;;;17.50;69.30;;;;;;5076754;27;46631;-70
2023/01/10 11:37:31;;;;;;;3.70;3.40;;;17.50;69.50;;;;;;5097699;27;43414;-71
2023/01/10 11:40:22;;;;;;;3.90;3.60;;;17.50;69.50;;;;;;5103807;27;43842;-71
2023/01/10 11:42:50;;;;;;;3.93;3.63;;;17.50;69.60;;;;;;5096494;27;43442;-71
2023/01/10 11:45:31;;;;;;;4.03;3.73;;;17.40;69.60;;;;;;5096489;27;44080;-72
2023/01/10 11:48:08;;;;;;;4.13;3.80;;;17.40;69.50;;;;;;5093727;27;43761;-70
2023/01/10 11:50:37;;;;;;;3.80;3.50;;;17.50;69.70;;;;;;5101128;27;43475;-71
2023/01/10 11:53:05;;;;;;;3.57;3.37;;;17.50;69.70;;;;;;5098315;27;43825;-72
2023/01/10 11:55:34;;;;;;;3.93;3.63;;;17.40;69.60;;;;;;5100975;27;43974;-71
2023/01/10 11:58:05;;;;;;;4.73;4.33;;;17.40;69.60;;;;;;5098898;27;44069;-72
2023/01/10 12:00:41;;;;;;;4.20;3.80;;;17.40;69.80;;;;;;5102802;27;44018;-71
2023/01/10 12:03:21;;;;;;;4.10;3.70;;;17.50;69.90;;;;;;5097281;27;43463;-71
2023/01/10 12:05:53;;;;;;;4.47;4.10;;;17.60;69.50;;;;;;5091416;27;43925;-71
2023/01/10 12:08:25;;;;;;;4.40;4.10;;;17.70;69.00;;;;;;5087771;27;43404;-71
2023/01/10 12:11:00;;;;;;;4.30;3.90;;;17.70;68.70;;;;;;5080745;27;43941;-70
2023/01/10 12:13:29;;;;;;;4.33;3.63;;;17.70;68.80;;;;;;5096882;27;43426;-71
2023/01/10 12:16:21;;;;;;;4.30;3.90;;;17.70;69.00;;;;;;5098753;27;43767;-72
2023/01/10 12:18:50;;;;;;;5.33;4.93;;;17.70;69.00;;;;;;5079178;27;44638;-70
2023/01/10 12:21:21;;;;;;;5.40;4.90;;;17.60;69.00;;;;;;5089457;27;44173;-70
2023/01/10 12:23:49;;;;;;;5.47;5.07;;;17.60;69.10;;;;;;5090045;27;44241;-71
2023/01/10 12:26:17;;;;;;;5.57;5.10;;;17.60;69.30;;;;;;5103928;27;43999;-72
2023/01/10 12:28:48;;;;;;;5.07;4.57;;;17.50;69.30;;;;;;5098040;27;43486;-71
2023/01/10 12:31:18;;;;;;;5.07;4.77;;;17.50;69.60;;;;;;5089961;27;43490;-71
2023/01/10 12:33:49;;;;;;;4.90;4.50;;;17.50;69.50;;;;;;5099257;27;43374;-71
2023/01/10 12:36:25;;;;;;;5.97;5.37;;;17.50;69.60;;;;;;5102489;27;43924;-70
2023/01/10 12:39:03;;;;;;;5.60;5.20;;;17.50;69.60;;;;;;5096014;27;43506;-71
2023/01/10 12:44:32;;;;;;;5.30;4.90;;;17.50;69.70;;;;;;5054204;27;43469;-71
2023/01/10 12:47:02;;;;;;;5.93;5.47;;;17.40;69.80;;;;;;5078783;27;45604;-73
2023/01/10 12:49:39;;;;;;;5.60;5.20;;;17.50;69.70;;;;;;5094620;27;43336;-71
2023/01/10 12:52:10;;;;;;;6.37;5.50;;;17.60;69.30;;;;;;5097012;27;43435;-71
2023/01/10 12:54:38;;;;;;;6.27;5.77;;;17.60;68.90;;;;;;5095455;27;43827;-72
2023/01/10 12:57:13;;;;;;;6.57;6.07;;;17.60;68.80;;;;;;5100664;27;43749;-72
2023/01/10 12:59:41;;;;;;;6.20;5.67;;;17.60;69.00;;;;;;5099070;27;43879;-72
2023/01/10 13:02:14;;;;;;;6.07;5.57;;;17.60;70.00;;;;;;5102975;27;43452;-71
2023/01/10 13:04:45;;;;;;;6.10;5.50;;;17.60;69.10;;;;;;5103263;27;45290;-71
2023/01/10 13:07:13;;;;;;;6.40;5.80;;;17.60;69.30;;;;;;5104553;27;43655;-72
2023/01/10 13:09:43;;;;;;;5.93;5.43;;;17.50;69.30;;;;;;5107303;27;43919;-70
2023/01/10 13:12:15;;;;;;;6.00;5.50;;;17.50;69.30;;;;;;5098307;27;43930;-72
2023/01/10 13:14:46;;;;;;;6.50;5.60;;;17.50;69.50;;;;;;5099173;27;43572;-71